sensor_id;sensor_type;location;lat;lon;timestamp;P1;durP1;ratioP1;P2;durP2;ratioP2
20154;SDS011;10238;49.556;10.956;2023-01-01T00:02:05;192.68;;;118.85;;
20154;SDS011;10238;49.556;10.956;2023-01-01T00:04:53;243.90;;;150.52;;
20154;SDS011;10238;49.556;10.956;2023-01-01T00:07:41;189.23;;;114.55;;
20154;SDS011;10238;49.556;10.956;2023-01-01T00:10:29;177.73;;;108.32;;
20154;SDS011;10238;49.556;10.956;2023-01-01T00:13:17;196.43;;;120.03;;
20154;SDS011;10238;49.556;10.956;2023-01-01T00:16:06;181.55;;;111.82;;
20154;SDS011;10238;49.556;10.956;2023-01-01T00:18:57;173.57;;;105.63;;
20154;SDS011;10238;49.556;10.956;2023-01-01T00:21:45;173.00;;;105.80;;
20154;SDS011;10238;49.556;10.956;2023-01-01T00:24:33;169.52;;;105.70;;
20154;SDS011;10238;49.556;10.956;2023-01-01T00:27:21;172.63;;;104.20;;
20154;SDS011;10238;49.556;10.956;2023-01-01T00:30:10;164.60;;;100.85;;
20154;SDS011;10238;49.556;10.956;2023-01-01T00:33:00;158.40;;;97.82;;
20154;SDS011;10238;49.556;10.956;2023-01-01T00:35:49;141.40;;;83.47;;
20154;SDS011;10238;49.556;10.956;2023-01-01T00:38:37;148.95;;;92.10;;
20154;SDS011;10238;49.556;10.956;2023-01-01T00:41:26;154.68;;;94.82;;
20154;SDS011;10238;49.556;10.956;2023-01-01T00:44:14;153.85;;;92.75;;
20154;SDS011;10238;49.556;10.956;2023-01-01T00:47:02;151.85;;;93.18;;
20154;SDS011;10238;49.556;10.956;2023-01-01T00:49:50;145.98;;;90.63;;
20154;SDS011;10238;49.556;10.956;2023-01-01T00:52:39;149.15;;;90.78;;
20154;SDS011;10238;49.556;10.956;2023-01-01T00:55:27;149.10;;;91.50;;
20154;SDS011;10238;49.556;10.956;2023-01-01T00:58:15;150.48;;;91.97;;
20154;SDS011;10238;49.556;10.956;2023-01-01T01:01:04;141.50;;;87.18;;
20154;SDS011;10238;49.556;10.956;2023-01-01T01:03:52;138.15;;;83.78;;
20154;SDS011;10238;49.556;10.956;2023-01-01T01:06:40;121.82;;;74.80;;
20154;SDS011;10238;49.556;10.956;2023-01-01T01:09:30;54.72;;;34.03;;
20154;SDS011;10238;49.556;10.956;2023-01-01T01:12:18;62.80;;;37.75;;
20154;SDS011;10238;49.556;10.956;2023-01-01T01:15:06;82.90;;;50.05;;
20154;SDS011;10238;49.556;10.956;2023-01-01T01:17:55;80.97;;;50.05;;
20154;SDS011;10238;49.556;10.956;2023-01-01T01:20:48;59.53;;;36.60;;
20154;SDS011;10238;49.556;10.956;2023-01-01T01:23:37;70.15;;;39.97;;
20154;SDS011;10238;49.556;10.956;2023-01-01T01:26:27;29.33;;;18.02;;
20154;SDS011;10238;49.556;10.956;2023-01-01T01:29:17;73.67;;;43.33;;
20154;SDS011;10238;49.556;10.956;2023-01-01T01:32:05;51.03;;;30.85;;
20154;SDS011;10238;49.556;10.956;2023-01-01T01:34:53;27.75;;;16.55;;
20154;SDS011;10238;49.556;10.956;2023-01-01T01:37:41;62.95;;;37.67;;
20154;SDS011;10238;49.556;10.956;2023-01-01T01:40:29;29.40;;;17.88;;
20154;SDS011;10238;49.556;10.956;2023-01-01T01:43:21;42.70;;;25.48;;
20154;SDS011;10238;49.556;10.956;2023-01-01T01:46:11;56.67;;;35.38;;
20154;SDS011;10238;49.556;10.956;2023-01-01T01:53:20;44.83;;;26.25;;
20154;SDS011;10238;49.556;10.956;2023-01-01T01:56:13;31.92;;;19.05;;
20154;SDS011;10238;49.556;10.956;2023-01-01T01:59:07;28.63;;;16.88;;
20154;SDS011;10238;49.556;10.956;2023-01-01T02:01:55;45.35;;;28.90;;
20154;SDS011;10238;49.556;10.956;2023-01-01T02:04:49;37.53;;;23.20;;
20154;SDS011;10238;49.556;10.956;2023-01-01T02:07:59;26.48;;;15.90;;
20154;SDS011;10238;49.556;10.956;2023-01-01T02:10:50;33.53;;;19.63;;
20154;SDS011;10238;49.556;10.956;2023-01-01T02:13:38;34.55;;;21.25;;
20154;SDS011;10238;49.556;10.956;2023-01-01T02:16:31;28.92;;;17.52;;
20154;SDS011;10238;49.556;10.956;2023-01-01T02:19:25;24.35;;;13.90;;
20154;SDS011;10238;49.556;10.956;2023-01-01T02:26:43;33.67;;;20.40;;
20154;SDS011;10238;49.556;10.956;2023-01-01T02:29:43;32.30;;;19.88;;
20154;SDS011;10238;49.556;10.956;2023-01-01T02:32:35;31.88;;;19.70;;
20154;SDS011;10238;49.556;10.956;2023-01-01T02:35:28;29.98;;;18.80;;
20154;SDS011;10238;49.556;10.956;2023-01-01T02:41:38;30.48;;;19.42;;
20154;SDS011;10238;49.556;10.956;2023-01-01T02:44:29;29.38;;;18.17;;
20154;SDS011;10238;49.556;10.956;2023-01-01T02:47:47;32.38;;;18.10;;
20154;SDS011;10238;49.556;10.956;2023-01-01T02:50:35;25.73;;;17.08;;
20154;SDS011;10238;49.556;10.956;2023-01-01T02:53:24;29.13;;;18.35;;
20154;SDS011;10238;49.556;10.956;2023-01-01T02:56:18;25.70;;;15.70;;
20154;SDS011;10238;49.556;10.956;2023-01-01T02:59:19;28.17;;;17.50;;
20154;SDS011;10238;49.556;10.956;2023-01-01T03:02:34;24.65;;;16.55;;
20154;SDS011;10238;49.556;10.956;2023-01-01T03:05:39;28.98;;;17.17;;
20154;SDS011;10238;49.556;10.956;2023-01-01T03:09:08;25.20;;;16.17;;
20154;SDS011;10238;49.556;10.956;2023-01-01T03:12:05;25.50;;;16.33;;
20154;SDS011;10238;49.556;10.956;2023-01-01T03:15:01;27.75;;;16.70;;
20154;SDS011;10238;49.556;10.956;2023-01-01T03:18:16;26.63;;;16.40;;
20154;SDS011;10238;49.556;10.956;2023-01-01T03:21:11;24.63;;;16.17;;
20154;SDS011;10238;49.556;10.956;2023-01-01T03:24:02;26.35;;;16.10;;
20154;SDS011;10238;49.556;10.956;2023-01-01T03:26:52;23.52;;;16.00;;
20154;SDS011;10238;49.556;10.956;2023-01-01T03:29:43;23.63;;;14.90;;
20154;SDS011;10238;49.556;10.956;2023-01-01T03:32:36;25.75;;;15.23;;
20154;SDS011;10238;49.556;10.956;2023-01-01T03:35:45;23.10;;;15.00;;
20154;SDS011;10238;49.556;10.956;2023-01-01T03:38:39;24.98;;;15.48;;
20154;SDS011;10238;49.556;10.956;2023-01-01T03:41:33;28.67;;;15.55;;
20154;SDS011;10238;49.556;10.956;2023-01-01T03:44:26;24.17;;;15.07;;
20154;SDS011;10238;49.556;10.956;2023-01-01T03:47:17;23.20;;;15.18;;
20154;SDS011;10238;49.556;10.956;2023-01-01T03:50:06;26.80;;;14.95;;
20154;SDS011;10238;49.556;10.956;2023-01-01T03:52:56;25.33;;;13.85;;
20154;SDS011;10238;49.556;10.956;2023-01-01T03:55:56;22.75;;;14.48;;
20154;SDS011;10238;49.556;10.956;2023-01-01T03:58:53;22.63;;;14.02;;
20154;SDS011;10238;49.556;10.956;2023-01-01T04:01:51;18.23;;;11.00;;
20154;SDS011;10238;49.556;10.956;2023-01-01T04:04:43;23.40;;;14.05;;
20154;SDS011;10238;49.556;10.956;2023-01-01T04:07:32;26.95;;;13.63;;
20154;SDS011;10238;49.556;10.956;2023-01-01T04:10:20;21.52;;;13.52;;
20154;SDS011;10238;49.556;10.956;2023-01-01T04:13:11;22.90;;;13.07;;
20154;SDS011;10238;49.556;10.956;2023-01-01T04:15:59;20.15;;;13.07;;
20154;SDS011;10238;49.556;10.956;2023-01-01T04:18:47;19.88;;;12.60;;
20154;SDS011;10238;49.556;10.956;2023-01-01T04:21:34;20.55;;;12.77;;
20154;SDS011;10238;49.556;10.956;2023-01-01T04:24:22;22.15;;;13.18;;
20154;SDS011;10238;49.556;10.956;2023-01-01T04:27:10;20.20;;;11.95;;
20154;SDS011;10238;49.556;10.956;2023-01-01T04:30:00;17.35;;;11.38;;
20154;SDS011;10238;49.556;10.956;2023-01-01T04:32:50;20.00;;;11.90;;
20154;SDS011;10238;49.556;10.956;2023-01-01T04:35:38;18.75;;;11.70;;
20154;SDS011;10238;49.556;10.956;2023-01-01T04:38:27;16.38;;;11.10;;
20154;SDS011;10238;49.556;10.956;2023-01-01T04:41:15;16.77;;;10.90;;
20154;SDS011;10238;49.556;10.956;2023-01-01T04:44:03;19.65;;;11.43;;
20154;SDS011;10238;49.556;10.956;2023-01-01T04:46:52;17.08;;;10.20;;
20154;SDS011;10238;49.556;10.956;2023-01-01T04:49:44;17.25;;;10.10;;
20154;SDS011;10238;49.556;10.956;2023-01-01T04:52:32;17.42;;;11.50;;
20154;SDS011;10238;49.556;10.956;2023-01-01T04:55:20;16.60;;;10.20;;
20154;SDS011;10238;49.556;10.956;2023-01-01T04:58:08;19.98;;;10.40;;
20154;SDS011;10238;49.556;10.956;2023-01-01T05:00:56;15.45;;;9.70;;
20154;SDS011;10238;49.556;10.956;2023-01-01T05:03:46;17.35;;;9.95;;
20154;SDS011;10238;49.556;10.956;2023-01-01T05:06:34;15.80;;;9.50;;
20154;SDS011;10238;49.556;10.956;2023-01-01T05:09:24;16.17;;;9.50;;
20154;SDS011;10238;49.556;10.956;2023-01-01T05:12:12;15.65;;;8.82;;
20154;SDS011;10238;49.556;10.956;2023-01-01T05:15:00;16.60;;;10.05;;
20154;SDS011;10238;49.556;10.956;2023-01-01T05:17:47;16.02;;;9.40;;
20154;SDS011;10238;49.556;10.956;2023-01-01T05:20:37;16.08;;;9.98;;
20154;SDS011;10238;49.556;10.956;2023-01-01T05:23:25;17.13;;;9.30;;
20154;SDS011;10238;49.556;10.956;2023-01-01T05:26:13;14.90;;;9.55;;
20154;SDS011;10238;49.556;10.956;2023-01-01T05:29:11;14.15;;;9.07;;
20154;SDS011;10238;49.556;10.956;2023-01-01T05:32:02;15.07;;;8.32;;
20154;SDS011;10238;49.556;10.956;2023-01-01T05:34:50;17.35;;;10.75;;
20154;SDS011;10238;49.556;10.956;2023-01-01T05:37:40;17.08;;;8.25;;
20154;SDS011;10238;49.556;10.956;2023-01-01T05:40:28;12.00;;;8.30;;
20154;SDS011;10238;49.556;10.956;2023-01-01T05:43:18;13.23;;;8.38;;
20154;SDS011;10238;49.556;10.956;2023-01-01T05:46:07;11.85;;;8.65;;
20154;SDS011;10238;49.556;10.956;2023-01-01T05:48:57;14.73;;;8.25;;
20154;SDS011;10238;49.556;10.956;2023-01-01T05:51:45;11.93;;;7.55;;
20154;SDS011;10238;49.556;10.956;2023-01-01T05:54:34;13.10;;;8.02;;
20154;SDS011;10238;49.556;10.956;2023-01-01T05:57:22;13.32;;;8.00;;
20154;SDS011;10238;49.556;10.956;2023-01-01T06:00:10;16.42;;;8.82;;
20154;SDS011;10238;49.556;10.956;2023-01-01T06:02:59;13.13;;;7.45;;
20154;SDS011;10238;49.556;10.956;2023-01-01T06:05:50;11.27;;;7.53;;
20154;SDS011;10238;49.556;10.956;2023-01-01T06:08:38;12.80;;;7.47;;
20154;SDS011;10238;49.556;10.956;2023-01-01T06:11:28;11.38;;;6.93;;
20154;SDS011;10238;49.556;10.956;2023-01-01T06:14:16;11.77;;;7.82;;
20154;SDS011;10238;49.556;10.956;2023-01-01T06:17:04;12.85;;;8.25;;
20154;SDS011;10238;49.556;10.956;2023-01-01T06:19:52;12.43;;;7.72;;
20154;SDS011;10238;49.556;10.956;2023-01-01T06:22:40;13.05;;;7.70;;
20154;SDS011;10238;49.556;10.956;2023-01-01T06:25:28;10.18;;;6.72;;
20154;SDS011;10238;49.556;10.956;2023-01-01T06:28:17;12.50;;;7.43;;
20154;SDS011;10238;49.556;10.956;2023-01-01T06:31:06;11.30;;;6.60;;
20154;SDS011;10238;49.556;10.956;2023-01-01T06:33:56;10.48;;;7.10;;
20154;SDS011;10238;49.556;10.956;2023-01-01T06:36:44;12.80;;;7.18;;
20154;SDS011;10238;49.556;10.956;2023-01-01T06:39:32;11.27;;;7.45;;
20154;SDS011;10238;49.556;10.956;2023-01-01T06:42:20;11.25;;;7.35;;
20154;SDS011;10238;49.556;10.956;2023-01-01T06:45:11;12.23;;;6.90;;
20154;SDS011;10238;49.556;10.956;2023-01-01T06:47:59;11.52;;;7.05;;
20154;SDS011;10238;49.556;10.956;2023-01-01T06:50:50;11.00;;;6.82;;
20154;SDS011;10238;49.556;10.956;2023-01-01T06:53:37;11.23;;;6.75;;
20154;SDS011;10238;49.556;10.956;2023-01-01T06:56:26;9.52;;;6.20;;
20154;SDS011;10238;49.556;10.956;2023-01-01T06:59:14;12.02;;;7.28;;
20154;SDS011;10238;49.556;10.956;2023-01-01T07:02:03;11.65;;;6.93;;
20154;SDS011;10238;49.556;10.956;2023-01-01T07:05:01;12.18;;;6.88;;
20154;SDS011;10238;49.556;10.956;2023-01-01T07:07:49;11.13;;;6.32;;
20154;SDS011;10238;49.556;10.956;2023-01-01T07:10:37;12.35;;;6.28;;
20154;SDS011;10238;49.556;10.956;2023-01-01T07:13:25;10.57;;;6.68;;
20154;SDS011;10238;49.556;10.956;2023-01-01T07:16:14;12.73;;;6.65;;
20154;SDS011;10238;49.556;10.956;2023-01-01T07:19:05;14.13;;;6.60;;
20154;SDS011;10238;49.556;10.956;2023-01-01T07:21:58;14.02;;;6.90;;
20154;SDS011;10238;49.556;10.956;2023-01-01T07:25:10;9.55;;;5.85;;
20154;SDS011;10238;49.556;10.956;2023-01-01T07:28:50;9.63;;;6.05;;
20154;SDS011;10238;49.556;10.956;2023-01-01T07:32:22;12.57;;;6.68;;
20154;SDS011;10238;49.556;10.956;2023-01-01T07:35:11;12.70;;;6.75;;
20154;SDS011;10238;49.556;10.956;2023-01-01T07:38:01;12.27;;;7.30;;
20154;SDS011;10238;49.556;10.956;2023-01-01T07:40:49;10.82;;;6.70;;
20154;SDS011;10238;49.556;10.956;2023-01-01T07:43:37;15.05;;;7.82;;
20154;SDS011;10238;49.556;10.956;2023-01-01T07:46:26;14.88;;;8.75;;
20154;SDS011;10238;49.556;10.956;2023-01-01T07:49:14;13.90;;;7.38;;
20154;SDS011;10238;49.556;10.956;2023-01-01T07:52:04;15.43;;;7.70;;
20154;SDS011;10238;49.556;10.956;2023-01-01T07:54:52;14.40;;;8.07;;
20154;SDS011;10238;49.556;10.956;2023-01-01T07:57:40;12.82;;;8.02;;
20154;SDS011;10238;49.556;10.956;2023-01-01T08:00:28;14.98;;;9.18;;
20154;SDS011;10238;49.556;10.956;2023-01-01T08:03:16;18.55;;;9.57;;
20154;SDS011;10238;49.556;10.956;2023-01-01T08:06:05;14.48;;;8.52;;
20154;SDS011;10238;49.556;10.956;2023-01-01T08:09:08;16.20;;;8.85;;
20154;SDS011;10238;49.556;10.956;2023-01-01T08:11:56;15.20;;;7.97;;
20154;SDS011;10238;49.556;10.956;2023-01-01T08:14:45;17.23;;;8.50;;
20154;SDS011;10238;49.556;10.956;2023-01-01T08:17:33;12.80;;;7.70;;
20154;SDS011;10238;49.556;10.956;2023-01-01T08:20:29;15.52;;;8.98;;
20154;SDS011;10238;49.556;10.956;2023-01-01T08:23:24;18.52;;;9.20;;
20154;SDS011;10238;49.556;10.956;2023-01-01T08:26:29;19.00;;;9.23;;
20154;SDS011;10238;49.556;10.956;2023-01-01T08:29:18;16.13;;;9.13;;
20154;SDS011;10238;49.556;10.956;2023-01-01T08:32:07;17.80;;;9.25;;
20154;SDS011;10238;49.556;10.956;2023-01-01T08:34:56;16.40;;;8.73;;
20154;SDS011;10238;49.556;10.956;2023-01-01T08:37:53;17.90;;;8.98;;
20154;SDS011;10238;49.556;10.956;2023-01-01T08:40:41;17.55;;;8.63;;
20154;SDS011;10238;49.556;10.956;2023-01-01T08:43:30;13.57;;;8.32;;
20154;SDS011;10238;49.556;10.956;2023-01-01T08:46:18;17.13;;;8.73;;
20154;SDS011;10238;49.556;10.956;2023-01-01T08:49:09;15.70;;;8.60;;
20154;SDS011;10238;49.556;10.956;2023-01-01T08:51:57;17.52;;;9.00;;
20154;SDS011;10238;49.556;10.956;2023-01-01T08:54:46;16.38;;;9.57;;
20154;SDS011;10238;49.556;10.956;2023-01-01T08:57:34;17.45;;;9.38;;
20154;SDS011;10238;49.556;10.956;2023-01-01T09:00:26;21.95;;;9.85;;
20154;SDS011;10238;49.556;10.956;2023-01-01T09:03:14;14.97;;;8.57;;
20154;SDS011;10238;49.556;10.956;2023-01-01T09:06:02;13.20;;;8.00;;
20154;SDS011;10238;49.556;10.956;2023-01-01T09:12:25;12.60;;;7.70;;
20154;SDS011;10238;49.556;10.956;2023-01-01T09:15:14;15.35;;;8.32;;
20154;SDS011;10238;49.556;10.956;2023-01-01T09:18:15;12.98;;;7.80;;
20154;SDS011;10238;49.556;10.956;2023-01-01T09:21:14;13.70;;;7.72;;
20154;SDS011;10238;49.556;10.956;2023-01-01T09:24:26;14.13;;;8.10;;
20154;SDS011;10238;49.556;10.956;2023-01-01T09:27:14;14.38;;;7.70;;
20154;SDS011;10238;49.556;10.956;2023-01-01T09:30:03;16.13;;;9.48;;
20154;SDS011;10238;49.556;10.956;2023-01-01T09:35:53;14.25;;;8.65;;
20154;SDS011;10238;49.556;10.956;2023-01-01T09:38:41;14.60;;;7.72;;
20154;SDS011;10238;49.556;10.956;2023-01-01T09:41:38;12.82;;;7.05;;
20154;SDS011;10238;49.556;10.956;2023-01-01T09:48:23;11.65;;;6.68;;
20154;SDS011;10238;49.556;10.956;2023-01-01T09:51:19;12.60;;;5.80;;
20154;SDS011;10238;49.556;10.956;2023-01-01T09:57:12;10.63;;;6.38;;
20154;SDS011;10238;49.556;10.956;2023-01-01T10:00:05;9.30;;;5.90;;
20154;SDS011;10238;49.556;10.956;2023-01-01T10:02:45;12.32;;;5.85;;
20154;SDS011;10238;49.556;10.956;2023-01-01T10:05:43;10.50;;;5.93;;
20154;SDS011;10238;49.556;10.956;2023-01-01T10:08:44;11.25;;;5.70;;
20154;SDS011;10238;49.556;10.956;2023-01-01T10:11:58;7.75;;;5.22;;
20154;SDS011;10238;49.556;10.956;2023-01-01T10:15:30;10.75;;;5.20;;
20154;SDS011;10238;49.556;10.956;2023-01-01T10:18:23;7.72;;;5.63;;
20154;SDS011;10238;49.556;10.956;2023-01-01T10:21:15;11.48;;;5.82;;
20154;SDS011;10238;49.556;10.956;2023-01-01T10:24:14;8.82;;;5.50;;
20154;SDS011;10238;49.556;10.956;2023-01-01T10:27:22;9.75;;;5.68;;
20154;SDS011;10238;49.556;10.956;2023-01-01T10:30:17;11.05;;;5.78;;
20154;SDS011;10238;49.556;10.956;2023-01-01T10:33:09;7.45;;;5.30;;
20154;SDS011;10238;49.556;10.956;2023-01-01T10:36:06;10.30;;;6.10;;
20154;SDS011;10238;49.556;10.956;2023-01-01T10:38:56;8.68;;;5.55;;
20154;SDS011;10238;49.556;10.956;2023-01-01T10:41:48;10.52;;;5.20;;
20154;SDS011;10238;49.556;10.956;2023-01-01T10:44:37;7.32;;;5.32;;
20154;SDS011;10238;49.556;10.956;2023-01-01T10:47:26;8.32;;;5.03;;
20154;SDS011;10238;49.556;10.956;2023-01-01T10:50:15;8.75;;;5.13;;
20154;SDS011;10238;49.556;10.956;2023-01-01T10:53:08;7.65;;;5.85;;
20154;SDS011;10238;49.556;10.956;2023-01-01T10:56:07;7.65;;;5.35;;
20154;SDS011;10238;49.556;10.956;2023-01-01T10:59:00;11.23;;;5.13;;
20154;SDS011;10238;49.556;10.956;2023-01-01T11:01:55;6.97;;;4.63;;
20154;SDS011;10238;49.556;10.956;2023-01-01T11:05:13;12.80;;;5.57;;
20154;SDS011;10238;49.556;10.956;2023-01-01T11:08:14;9.32;;;5.40;;
20154;SDS011;10238;49.556;10.956;2023-01-01T11:11:04;7.30;;;5.00;;
20154;SDS011;10238;49.556;10.956;2023-01-01T11:17:26;7.70;;;5.20;;
20154;SDS011;10238;49.556;10.956;2023-01-01T11:20:40;9.98;;;5.70;;
20154;SDS011;10238;49.556;10.956;2023-01-01T11:26:19;8.00;;;4.97;;
20154;SDS011;10238;49.556;10.956;2023-01-01T11:29:19;7.45;;;5.40;;
20154;SDS011;10238;49.556;10.956;2023-01-01T11:32:11;9.50;;;5.63;;
20154;SDS011;10238;49.556;10.956;2023-01-01T11:35:13;8.13;;;5.32;;
20154;SDS011;10238;49.556;10.956;2023-01-01T11:38:04;7.82;;;6.38;;
20154;SDS011;10238;49.556;10.956;2023-01-01T11:41:03;11.07;;;5.60;;
20154;SDS011;10238;49.556;10.956;2023-01-01T11:43:52;9.60;;;6.53;;
20154;SDS011;10238;49.556;10.956;2023-01-01T11:46:43;12.00;;;7.03;;
20154;SDS011;10238;49.556;10.956;2023-01-01T11:49:32;8.90;;;6.53;;
20154;SDS011;10238;49.556;10.956;2023-01-01T11:52:28;11.18;;;6.55;;
20154;SDS011;10238;49.556;10.956;2023-01-01T11:55:23;9.32;;;6.00;;
20154;SDS011;10238;49.556;10.956;2023-01-01T11:58:24;11.73;;;5.82;;
20154;SDS011;10238;49.556;10.956;2023-01-01T12:01:18;8.65;;;5.72;;
20154;SDS011;10238;49.556;10.956;2023-01-01T12:04:15;7.50;;;5.55;;
20154;SDS011;10238;49.556;10.956;2023-01-01T12:07:07;10.13;;;5.70;;
20154;SDS011;10238;49.556;10.956;2023-01-01T12:09:59;9.00;;;5.85;;
20154;SDS011;10238;49.556;10.956;2023-01-01T12:12:55;7.15;;;5.18;;
20154;SDS011;10238;49.556;10.956;2023-01-01T12:15:48;10.52;;;6.68;;
20154;SDS011;10238;49.556;10.956;2023-01-01T12:18:43;8.55;;;5.07;;
20154;SDS011;10238;49.556;10.956;2023-01-01T12:21:43;8.45;;;5.15;;
20154;SDS011;10238;49.556;10.956;2023-01-01T12:24:39;7.95;;;5.45;;
20154;SDS011;10238;49.556;10.956;2023-01-01T12:27:31;8.65;;;5.93;;
20154;SDS011;10238;49.556;10.956;2023-01-01T12:30:32;9.25;;;7.55;;
20154;SDS011;10238;49.556;10.956;2023-01-01T12:36:46;8.27;;;5.15;;
20154;SDS011;10238;49.556;10.956;2023-01-01T12:43:10;5.95;;;4.60;;
20154;SDS011;10238;49.556;10.956;2023-01-01T12:52:19;8.75;;;4.78;;
20154;SDS011;10238;49.556;10.956;2023-01-01T12:55:41;6.47;;;4.78;;
20154;SDS011;10238;49.556;10.956;2023-01-01T12:58:49;7.00;;;4.97;;
20154;SDS011;10238;49.556;10.956;2023-01-01T13:01:43;7.30;;;4.72;;
20154;SDS011;10238;49.556;10.956;2023-01-01T13:04:32;6.53;;;5.18;;
20154;SDS011;10238;49.556;10.956;2023-01-01T13:07:33;6.32;;;4.82;;
20154;SDS011;10238;49.556;10.956;2023-01-01T13:10:25;8.40;;;6.18;;
20154;SDS011;10238;49.556;10.956;2023-01-01T13:13:16;8.07;;;5.28;;
20154;SDS011;10238;49.556;10.956;2023-01-01T13:16:05;13.32;;;8.82;;
20154;SDS011;10238;49.556;10.956;2023-01-01T13:18:55;9.68;;;8.05;;
20154;SDS011;10238;49.556;10.956;2023-01-01T13:21:47;11.90;;;11.03;;
20154;SDS011;10238;49.556;10.956;2023-01-01T13:24:36;12.80;;;11.70;;
20154;SDS011;10238;49.556;10.956;2023-01-01T13:30:48;8.45;;;7.63;;
20154;SDS011;10238;49.556;10.956;2023-01-01T13:33:37;11.13;;;8.23;;
20154;SDS011;10238;49.556;10.956;2023-01-01T13:36:31;11.95;;;8.35;;
20154;SDS011;10238;49.556;10.956;2023-01-01T13:42:43;10.85;;;7.63;;
20154;SDS011;10238;49.556;10.956;2023-01-01T13:45:50;7.70;;;6.88;;
20154;SDS011;10238;49.556;10.956;2023-01-01T13:53:31;9.40;;;6.47;;
20154;SDS011;10238;49.556;10.956;2023-01-01T13:56:39;11.05;;;7.10;;
20154;SDS011;10238;49.556;10.956;2023-01-01T14:02:51;12.45;;;7.40;;
20154;SDS011;10238;49.556;10.956;2023-01-01T14:05:44;15.35;;;8.63;;
20154;SDS011;10238;49.556;10.956;2023-01-01T14:08:41;11.70;;;10.45;;
20154;SDS011;10238;49.556;10.956;2023-01-01T14:11:29;12.85;;;6.80;;
20154;SDS011;10238;49.556;10.956;2023-01-01T14:14:21;10.45;;;6.20;;
20154;SDS011;10238;49.556;10.956;2023-01-01T14:17:13;7.22;;;5.50;;
20154;SDS011;10238;49.556;10.956;2023-01-01T14:20:04;8.63;;;5.90;;
20154;SDS011;10238;49.556;10.956;2023-01-01T14:23:26;8.48;;;6.10;;
20154;SDS011;10238;49.556;10.956;2023-01-01T14:29:16;10.77;;;9.05;;
20154;SDS011;10238;49.556;10.956;2023-01-01T14:32:20;8.25;;;6.10;;
20154;SDS011;10238;49.556;10.956;2023-01-01T14:35:17;8.70;;;7.00;;
20154;SDS011;10238;49.556;10.956;2023-01-01T14:38:15;7.47;;;6.70;;
20154;SDS011;10238;49.556;10.956;2023-01-01T14:41:11;11.10;;;6.50;;
20154;SDS011;10238;49.556;10.956;2023-01-01T14:44:05;9.68;;;6.88;;
20154;SDS011;10238;49.556;10.956;2023-01-01T14:47:02;9.63;;;7.38;;
20154;SDS011;10238;49.556;10.956;2023-01-01T14:49:51;11.77;;;9.25;;
20154;SDS011;10238;49.556;10.956;2023-01-01T14:52:41;9.68;;;7.72;;
20154;SDS011;10238;49.556;10.956;2023-01-01T14:55:33;7.22;;;6.20;;
20154;SDS011;10238;49.556;10.956;2023-01-01T14:58:26;8.75;;;6.93;;
20154;SDS011;10238;49.556;10.956;2023-01-01T15:01:16;9.88;;;7.85;;
20154;SDS011;10238;49.556;10.956;2023-01-01T15:04:17;12.73;;;11.73;;
20154;SDS011;10238;49.556;10.956;2023-01-01T15:07:15;8.65;;;6.57;;
20154;SDS011;10238;49.556;10.956;2023-01-01T15:10:10;7.28;;;5.60;;
20154;SDS011;10238;49.556;10.956;2023-01-01T15:12:59;6.32;;;4.88;;
20154;SDS011;10238;49.556;10.956;2023-01-01T15:15:50;11.15;;;5.70;;
20154;SDS011;10238;49.556;10.956;2023-01-01T15:18:40;6.75;;;5.80;;
20154;SDS011;10238;49.556;10.956;2023-01-01T15:21:35;7.43;;;5.85;;
20154;SDS011;10238;49.556;10.956;2023-01-01T15:24:25;8.02;;;5.30;;
20154;SDS011;10238;49.556;10.956;2023-01-01T15:27:19;7.65;;;5.18;;
20154;SDS011;10238;49.556;10.956;2023-01-01T15:30:20;8.30;;;5.47;;
20154;SDS011;10238;49.556;10.956;2023-01-01T15:33:13;8.80;;;6.00;;
20154;SDS011;10238;49.556;10.956;2023-01-01T15:36:03;7.30;;;6.07;;
20154;SDS011;10238;49.556;10.956;2023-01-01T15:38:53;8.52;;;5.90;;
20154;SDS011;10238;49.556;10.956;2023-01-01T15:41:42;7.68;;;5.07;;
20154;SDS011;10238;49.556;10.956;2023-01-01T15:44:32;7.97;;;5.03;;
20154;SDS011;10238;49.556;10.956;2023-01-01T15:47:22;7.25;;;4.78;;
20154;SDS011;10238;49.556;10.956;2023-01-01T15:50:12;7.20;;;5.30;;
20154;SDS011;10238;49.556;10.956;2023-01-01T15:53:09;6.00;;;4.78;;
20154;SDS011;10238;49.556;10.956;2023-01-01T15:56:04;8.57;;;4.95;;
20154;SDS011;10238;49.556;10.956;2023-01-01T15:58:57;5.93;;;4.70;;
20154;SDS011;10238;49.556;10.956;2023-01-01T16:02:04;6.68;;;5.30;;
20154;SDS011;10238;49.556;10.956;2023-01-01T16:04:59;8.25;;;5.60;;
20154;SDS011;10238;49.556;10.956;2023-01-01T16:07:57;7.03;;;5.00;;
20154;SDS011;10238;49.556;10.956;2023-01-01T16:11:13;6.50;;;4.88;;
20154;SDS011;10238;49.556;10.956;2023-01-01T16:14:04;6.63;;;4.85;;
20154;SDS011;10238;49.556;10.956;2023-01-01T16:16:53;7.55;;;5.32;;
20154;SDS011;10238;49.556;10.956;2023-01-01T16:19:45;5.78;;;4.75;;
20154;SDS011;10238;49.556;10.956;2023-01-01T16:22:36;5.93;;;4.90;;
20154;SDS011;10238;49.556;10.956;2023-01-01T16:25:23;7.22;;;5.20;;
20154;SDS011;10238;49.556;10.956;2023-01-01T16:28:13;7.68;;;5.78;;
20154;SDS011;10238;49.556;10.956;2023-01-01T16:31:01;5.57;;;4.68;;
20154;SDS011;10238;49.556;10.956;2023-01-01T16:33:51;6.38;;;4.25;;
20154;SDS011;10238;49.556;10.956;2023-01-01T16:36:40;5.85;;;4.60;;
20154;SDS011;10238;49.556;10.956;2023-01-01T16:39:28;7.68;;;5.28;;
20154;SDS011;10238;49.556;10.956;2023-01-01T16:42:18;7.28;;;5.63;;
20154;SDS011;10238;49.556;10.956;2023-01-01T16:45:09;8.38;;;5.53;;
20154;SDS011;10238;49.556;10.956;2023-01-01T16:48:05;6.50;;;4.57;;
20154;SDS011;10238;49.556;10.956;2023-01-01T16:50:53;5.78;;;4.43;;
20154;SDS011;10238;49.556;10.956;2023-01-01T16:53:41;6.63;;;5.00;;
20154;SDS011;10238;49.556;10.956;2023-01-01T16:56:29;6.05;;;4.72;;
20154;SDS011;10238;49.556;10.956;2023-01-01T16:59:17;7.05;;;4.53;;
20154;SDS011;10238;49.556;10.956;2023-01-01T17:02:08;7.47;;;4.80;;
20154;SDS011;10238;49.556;10.956;2023-01-01T17:04:57;7.47;;;4.60;;
20154;SDS011;10238;49.556;10.956;2023-01-01T17:07:45;5.80;;;4.70;;
20154;SDS011;10238;49.556;10.956;2023-01-01T17:10:33;7.38;;;4.93;;
20154;SDS011;10238;49.556;10.956;2023-01-01T17:13:21;6.25;;;5.25;;
20154;SDS011;10238;49.556;10.956;2023-01-01T17:16:09;5.63;;;5.03;;
20154;SDS011;10238;49.556;10.956;2023-01-01T17:19:04;8.95;;;5.47;;
20154;SDS011;10238;49.556;10.956;2023-01-01T17:22:01;8.90;;;6.40;;
20154;SDS011;10238;49.556;10.956;2023-01-01T17:24:50;7.55;;;5.28;;
20154;SDS011;10238;49.556;10.956;2023-01-01T17:27:38;8.77;;;5.00;;
20154;SDS011;10238;49.556;10.956;2023-01-01T17:30:26;7.55;;;5.22;;
20154;SDS011;10238;49.556;10.956;2023-01-01T17:33:14;8.55;;;5.10;;
20154;SDS011;10238;49.556;10.956;2023-01-01T17:36:03;8.35;;;5.45;;
20154;SDS011;10238;49.556;10.956;2023-01-01T17:38:52;5.78;;;4.70;;
20154;SDS011;10238;49.556;10.956;2023-01-01T17:41:41;8.43;;;5.68;;
20154;SDS011;10238;49.556;10.956;2023-01-01T17:44:29;8.07;;;5.25;;
20154;SDS011;10238;49.556;10.956;2023-01-01T17:47:17;6.90;;;5.63;;
20154;SDS011;10238;49.556;10.956;2023-01-01T17:50:06;8.57;;;5.10;;
20154;SDS011;10238;49.556;10.956;2023-01-01T17:52:56;6.50;;;5.20;;